Time;durP1;ratioP1;P1;durP2;ratioP2;P2;SDS_P1;SDS_P2;PMS_P1;PMS_P2;Temp;Humidity;BMP_temperature;BMP_pressure;BME280_temperature;BME280_humidity;BME280_pressure;Samples;Min_cycle;Max_cycle;Signal;HPM_P1;HPM_P2
2021/11/18 00:02:16;;;;;;;98.97;50.48;;;;;;;5.00;99.87;100573.06;1673169;84;25641;-64
2021/11/18 00:04:42;;;;;;;99.03;48.10;;;;;;;5.02;99.84;100570.94;1673417;85;25707;-64
2021/11/18 00:07:09;;;;;;;103.67;50.63;;;;;;;5.04;99.70;100579.52;1684801;84;25422;-65
2021/11/18 00:09:36;;;;;;;96.10;48.48;;;;;;;5.05;99.67;100575.75;1702652;84;27316;-65
2021/11/18 00:12:06;;;;;;;87.50;45.48;;;;;;;5.08;99.59;100577.66;1702807;84;27156;-65
2021/11/18 00:14:32;;;;;;;89.07;45.08;;;;;;;5.10;99.52;100587.58;1702853;84;25707;-65
2021/11/18 00:16:59;;;;;;;93.45;43.68;;;;;;;5.11;99.41;100586.48;1702660;84;25743;-65
2021/11/18 00:19:25;;;;;;;89.03;46.13;;;;;;;5.14;99.39;100591.33;1702952;84;25632;-65
2021/11/18 00:21:52;;;;;;;82.97;43.73;;;;;;;5.16;99.23;100589.17;1673382;85;27320;-65
2021/11/18 00:24:18;;;;;;;81.45;41.20;;;;;;;5.17;99.17;100590.80;1684417;84;25750;-65
2021/11/18 00:26:45;;;;;;;82.95;41.48;;;;;;;5.18;99.01;100573.11;1702985;84;25724;-65
2021/11/18 00:29:11;;;;;;;75.78;40.23;;;;;;;5.20;98.91;100582.23;1702776;84;25616;-65
2021/11/18 00:31:40;;;;;;;76.33;41.02;;;;;;;5.20;98.53;100585.71;1673177;85;25454;-65
2021/11/18 00:34:07;;;;;;;71.97;38.90;;;;;;;5.21;98.44;100583.31;1702878;84;28014;-65
2021/11/18 00:36:34;;;;;;;72.30;38.53;;;;;;;5.24;98.35;100591.34;1673307;85;25730;-65
2021/11/18 00:39:03;;;;;;;69.82;37.35;;;;;;;5.25;98.27;100592.97;1702690;84;25622;-65
2021/11/18 00:41:31;;;;;;;61.77;33.45;;;;;;;5.25;97.99;100586.27;1700324;83;25820;-64
2021/11/18 00:43:58;;;;;;;59.85;33.73;;;;;;;5.26;97.74;100595.10;1679323;85;25706;-64
2021/11/18 00:46:25;;;;;;;61.05;34.00;;;;;;;5.26;97.77;100588.40;1678918;85;29448;-65
2021/11/18 00:48:52;;;;;;;56.85;31.48;;;;;;;5.27;97.78;100583.31;1679424;85;25683;-66
2021/11/18 00:51:21;;;;;;;58.60;31.10;;;;;;;5.27;97.58;100583.31;1679267;85;25677;-66
2021/11/18 00:53:58;;;;;;;54.08;30.23;;;;;;;5.27;97.31;100580.09;1679321;85;26175;-66
2021/11/18 00:56:25;;;;;;;52.83;28.90;;;;;;;5.28;97.19;100586.25;1679325;84;25732;-64
2021/11/18 00:58:55;;;;;;;52.38;28.70;;;;;;;5.28;96.83;100581.72;1679576;84;28451;-64
2021/11/18 01:01:29;;;;;;;52.90;29.48;;;;;;;5.29;96.85;100577.14;1678715;85;25582;-67
2021/11/18 01:03:57;;;;;;;51.80;29.02;;;;;;;5.30;96.83;100590.30;1679263;85;25614;-66
2021/11/18 01:06:24;;;;;;;50.78;28.40;;;;;;;5.30;96.64;100584.13;1679524;85;25739;-64
2021/11/18 01:08:50;;;;;;;47.38;26.33;;;;;;;5.31;96.58;100583.04;1679480;84;25399;-66
2021/11/18 01:11:25;;;;;;;52.45;27.90;;;;;;;5.31;96.48;100589.75;1679217;85;27376;-66
2021/11/18 01:13:53;;;;;;;49.83;27.95;;;;;;;5.32;96.34;100590.03;1678945;85;27112;-66
2021/11/18 01:16:24;;;;;;;47.00;27.75;;;;;;;5.32;96.28;100588.14;1679096;85;25736;-64
2021/11/18 01:18:51;;;;;;;48.90;26.85;;;;;;;5.34;96.31;100590.02;1679368;84;25633;-64
2021/11/18 01:21:20;;;;;;;45.88;27.65;;;;;;;5.34;96.23;100591.36;1679542;85;25675;-64
2021/11/18 01:23:47;;;;;;;47.27;26.93;;;;;;;5.35;96.15;100584.14;1678925;85;27309;-65
2021/11/18 01:26:18;;;;;;;44.93;26.07;;;;;;;5.34;96.08;100579.29;1679074;85;25454;-65
2021/11/18 01:28:46;;;;;;;44.60;26.17;;;;;;;5.35;95.91;100590.30;1679932;85;25725;-66
2021/11/18 01:31:14;;;;;;;44.53;24.50;;;;;;;5.34;95.60;100577.16;1678909;85;25819;-66
2021/11/18 01:33:42;;;;;;;44.08;25.97;;;;;;;5.34;95.65;100576.61;1679539;84;25397;-65
2021/11/18 01:36:09;;;;;;;45.25;25.60;;;;;;;5.35;95.55;100588.16;1679386;85;27321;-66
2021/11/18 01:38:37;;;;;;;44.42;25.48;;;;;;;5.35;95.46;100586.27;1679074;84;25678;-66
2021/11/18 01:41:08;;;;;;;44.63;24.82;;;;;;;5.36;95.66;100591.92;1685667;84;25619;-65
2021/11/18 01:43:40;;;;;;;42.95;23.87;;;;;;;5.37;95.42;100579.30;1690132;84;25617;-66
2021/11/18 01:46:11;;;;;;;44.35;25.48;;;;;;;5.36;95.34;100589.24;1690085;84;25394;-65
2021/11/18 01:48:38;;;;;;;42.95;24.30;;;;;;;5.36;95.35;100589.24;1690174;84;28133;-65
2021/11/18 01:51:06;;;;;;;42.10;25.02;;;;;;;5.36;95.42;100582.53;1689950;84;25766;-65
2021/11/18 01:53:37;;;;;;;42.88;24.67;;;;;;;5.37;95.15;100594.06;1689958;84;25634;-65
2021/11/18 01:56:11;;;;;;;44.65;25.30;;;;;;;5.37;95.28;100592.72;1690027;84;25703;-65
2021/11/18 01:58:40;;;;;;;46.15;25.30;;;;;;;5.38;95.33;100598.34;1689806;84;25589;-66
2021/11/18 02:01:09;;;;;;;38.53;23.07;;;;;;;5.38;95.14;100603.19;1690087;84;27371;-66
2021/11/18 02:03:37;;;;;;;43.95;24.55;;;;;;;5.36;95.17;100584.39;1690041;84;25696;-66
2021/11/18 02:06:23;;;;;;;42.17;23.35;;;;;;;5.36;95.27;100594.60;1689840;84;25672;-64
2021/11/18 02:08:51;;;;;;;40.75;24.27;;;;;;;5.35;95.39;100591.64;1690139;84;25747;-65
2021/11/18 02:11:29;;;;;;;45.00;24.67;;;;;;;5.34;95.53;100593.25;1689987;84;25678;-64
2021/11/18 02:13:57;;;;;;;43.65;23.30;;;;;;;5.33;95.71;100603.18;1689880;84;27328;-64
2021/11/18 02:16:25;;;;;;;42.93;23.38;;;;;;;5.31;95.80;100599.96;1689939;84;25650;-64
2021/11/18 02:18:52;;;;;;;41.88;23.45;;;;;;;5.30;95.91;100609.61;1690185;84;25476;-64
2021/11/18 02:21:20;;;;;;;44.13;23.87;;;;;;;5.27;96.08;100606.91;1689748;84;26138;-64
2021/11/18 02:23:51;;;;;;;38.45;22.13;;;;;;;5.25;96.40;100605.03;1690080;84;25635;-64
2021/11/18 02:26:21;;;;;;;35.30;21.90;;;;;;;5.23;96.33;100609.87;1689965;84;27317;-64
2021/11/18 02:28:52;;;;;;;37.67;20.68;;;;;;;5.20;96.33;100609.05;1689923;84;25621;-64
2021/11/18 02:31:36;;;;;;;38.58;22.65;;;;;;;5.19;96.43;100612.28;1690029;84;25641;-64
2021/11/18 02:34:13;;;;;;;38.58;21.62;;;;;;;5.17;96.59;100606.34;1690079;84;26134;-66
2021/11/18 02:36:41;;;;;;;35.73;21.95;;;;;;;5.15;96.72;100615.20;1689803;84;25675;-63
2021/11/18 02:39:08;;;;;;;34.50;20.27;;;;;;;5.15;96.75;100619.22;1690081;84;27304;-66
2021/11/18 02:41:37;;;;;;;38.55;22.48;;;;;;;5.13;96.81;100611.98;1683567;84;25581;-66
2021/11/18 02:44:06;;;;;;;39.18;21.80;;;;;;;5.13;96.83;100618.69;1679852;85;25747;-65
2021/11/18 02:46:34;;;;;;;41.60;21.57;;;;;;;5.14;96.91;100624.84;1694789;83;25625;-66
2021/11/18 02:49:01;;;;;;;40.45;24.12;;;;;;;5.13;96.90;100626.73;1694843;84;25737;-64
2021/11/18 02:51:29;;;;;;;40.28;21.70;;;;;;;5.14;97.11;100624.84;1694582;84;27840;-64
2021/11/18 02:53:55;;;;;;;42.30;23.42;;;;;;;5.13;96.92;100630.75;1694724;84;25739;-66
2021/11/18 02:56:24;;;;;;;41.02;21.10;;;;;;;5.14;97.09;100635.57;1694664;84;25581;-66
2021/11/18 02:58:51;;;;;;;38.33;22.37;;;;;;;5.16;97.00;100630.75;1694572;84;25458;-66
2021/11/18 03:01:29;;;;;;;39.30;21.80;;;;;;;5.15;96.97;100623.24;1694824;84;25377;-66
2021/11/18 03:03:57;;;;;;;37.13;21.93;;;;;;;5.14;97.07;100617.63;1694877;84;27344;-65
2021/11/18 03:06:25;;;;;;;36.98;21.48;;;;;;;5.15;96.97;100611.17;1694370;84;25520;-65
2021/11/18 03:08:51;;;;;;;35.60;21.62;;;;;;;5.16;96.99;100614.66;1694864;83;25449;-65
2021/11/18 03:11:21;;;;;;;37.67;20.82;;;;;;;5.18;97.03;100620.58;1694713;84;25616;-66
2021/11/18 03:13:48;;;;;;;33.80;19.92;;;;;;;5.17;97.12;100618.41;1694709;84;25440;-66
2021/11/18 03:16:16;;;;;;;33.58;21.05;;;;;;;5.18;97.10;100624.61;1694649;84;29382;-65
2021/11/18 03:18:43;;;;;;;36.38;20.72;;;;;;;5.18;96.99;100610.66;1694732;83;25478;-65
2021/11/18 03:21:17;;;;;;;37.40;19.87;;;;;;;5.19;97.01;100610.94;1694514;83;25398;-65
2021/11/18 03:23:44;;;;;;;36.30;20.05;;;;;;;5.18;97.11;100618.70;1694553;84;25749;-64
2021/11/18 03:26:14;;;;;;;34.18;20.32;;;;;;;5.17;97.01;100622.44;1674676;84;25487;-64
2021/11/18 03:28:41;;;;;;;37.33;19.80;;;;;;;5.16;97.08;100611.46;1694498;84;27508;-64
2021/11/18 03:31:11;;;;;;;35.48;20.50;;;;;;;5.16;97.07;100620.84;1694873;84;25739;-64
2021/11/18 03:33:51;;;;;;;31.87;19.80;;;;;;;5.18;97.06;100620.04;1694921;84;25701;-65
2021/11/18 03:36:21;;;;;;;36.50;20.70;;;;;;;5.18;97.06;100619.24;1693932;84;25677;-64
2021/11/18 03:38:50;;;;;;;32.40;20.12;;;;;;;5.18;96.99;100629.42;1694990;84;25686;-64
2021/11/18 03:41:18;;;;;;;34.23;19.57;;;;;;;5.18;97.00;100628.09;1696926;83;27324;-64
2021/11/18 03:43:58;;;;;;;33.75;20.05;;;;;;;5.19;97.06;100627.02;1699624;84;25710;-64
2021/11/18 03:46:30;;;;;;;37.42;21.42;;;;;;;5.19;97.02;100632.39;1698881;84;25563;-66
2021/11/18 03:48:58;;;;;;;39.35;21.62;;;;;;;5.19;97.01;100628.37;1699003;84;25620;-64
2021/11/18 03:51:28;;;;;;;40.33;21.55;;;;;;;5.21;97.02;100633.44;1699595;84;25631;-63
2021/11/18 03:53:55;;;;;;;38.65;20.97;;;;;;;5.20;97.01;100637.20;1699711;83;27519;-63
2021/11/18 03:56:27;;;;;;;38.98;20.50;;;;;;;5.21;97.01;100646.84;1699196;84;25607;-63
2021/11/18 03:58:53;;;;;;;36.88;22.15;;;;;;;5.22;97.01;100636.41;1699129;83;25566;-63
2021/11/18 04:01:21;;;;;;;35.43;21.45;;;;;;;5.23;97.00;100647.42;1698671;84;26305;-64
2021/11/18 04:03:52;;;;;;;38.40;22.20;;;;;;;5.23;96.92;100639.38;1699608;84;25799;-64
2021/11/18 04:06:16;;;;;;;42.90;21.52;;;;;;;5.24;96.89;100644.47;1700190;82;27439;-64
2021/11/18 04:08:42;;;;;;;35.65;20.77;;;;;;;5.23;96.77;100642.84;1678797;85;25619;-64
2021/11/18 04:11:10;;;;;;;39.08;20.65;;;;;;;5.23;96.74;100644.19;1679303;84;25584;-66
2021/11/18 04:13:36;;;;;;;38.70;21.60;;;;;;;5.25;96.74;100650.63;1679335;85;26494;-64
2021/11/18 04:16:06;;;;;;;40.03;21.20;;;;;;;5.26;96.71;100654.94;1679715;84;25834;-64
2021/11/18 04:18:34;;;;;;;45.92;23.27;;;;;;;5.27;96.66;100649.83;1679538;85;27305;-64
2021/11/18 04:21:03;;;;;;;37.93;22.07;;;;;;;5.28;96.68;100657.33;1679083;85;25708;-64
2021/11/18 04:23:30;;;;;;;36.23;21.23;;;;;;;5.27;96.58;100659.22;1679520;85;25599;-64
2021/11/18 04:25:56;;;;;;;37.40;22.67;;;;;;;5.28;96.63;100662.18;1679743;85;25672;-65
2021/11/18 04:28:24;;;;;;;41.33;22.62;;;;;;;5.30;96.58;100664.60;1678994;85;25719;-66
2021/11/18 04:30:55;;;;;;;41.28;22.35;;;;;;;5.31;96.56;100653.61;1701171;83;27331;-66
2021/11/18 04:33:24;;;;;;;35.40;21.05;;;;;;;5.32;96.54;100663.80;1699329;83;25605;-64
2021/11/18 04:35:52;;;;;;;39.27;21.73;;;;;;;5.33;96.49;100656.83;1699934;84;25572;-64
2021/11/18 04:38:19;;;;;;;39.18;23.15;;;;;;;5.35;96.43;100668.64;1698812;84;25639;-65
2021/11/18 04:40:46;;;;;;;36.98;21.52;;;;;;;5.36;96.43;100671.06;1697808;84;25735;-64
2021/11/18 04:43:13;;;;;;;38.08;21.87;;;;;;;5.38;96.30;100669.42;1680024;84;26926;-65
2021/11/18 04:45:40;;;;;;;39.42;22.65;;;;;;;5.40;96.29;100664.63;1680159;85;25744;-66
2021/11/18 04:48:07;;;;;;;46.60;22.62;;;;;;;5.41;96.14;100660.34;1680234;84;25669;-64
2021/11/18 04:50:36;;;;;;;39.48;22.45;;;;;;;5.43;96.05;100668.09;1679955;85;25691;-64
2021/11/18 04:53:03;;;;;;;44.95;22.45;;;;;;;5.42;96.04;100671.87;1680329;85;25732;-64
2021/11/18 04:55:31;;;;;;;40.55;21.30;;;;;;;5.45;96.00;100663.81;1680152;84;27483;-65
2021/11/18 04:57:58;;;;;;;40.08;21.80;;;;;;;5.43;95.92;100662.22;1679906;85;25632;-64
2021/11/18 05:00:30;;;;;;;36.17;21.05;;;;;;;5.47;95.89;100669.73;1680162;84;25624;-64
2021/11/18 05:02:57;;;;;;;41.10;21.75;;;;;;;5.48;95.80;100669.45;1679385;84;26295;-64
2021/11/18 05:05:25;;;;;;;40.25;21.95;;;;;;;5.48;95.73;100674.81;1679968;84;25633;-64
2021/11/18 05:07:54;;;;;;;36.85;21.68;;;;;;;5.49;95.65;100678.32;1680326;84;27348;-64
2021/11/18 05:10:22;;;;;;;42.53;22.53;;;;;;;5.50;95.68;100675.38;1680313;85;25779;-63
2021/11/18 05:12:50;;;;;;;43.42;22.95;;;;;;;5.52;95.72;100677.25;1679987;85;26170;-63
2021/11/18 05:15:20;;;;;;;41.77;23.12;;;;;;;5.52;95.38;100672.44;1680189;85;26174;-63
2021/11/18 05:17:48;;;;;;;44.23;22.95;;;;;;;5.51;95.32;100672.95;1680247;84;25410;-63
2021/11/18 05:20:18;;;;;;;43.33;21.85;;;;;;;5.51;95.37;100663.55;1679879;85;27404;-63
2021/11/18 05:22:47;;;;;;;41.58;22.95;;;;;;;5.53;95.47;100672.14;1680146;84;25808;-63
2021/11/18 05:25:15;;;;;;;43.67;23.20;;;;;;;5.53;95.51;100671.34;1680367;85;25679;-65
2021/11/18 05:27:41;;;;;;;43.95;22.60;;;;;;;5.54;95.40;100676.99;1679899;85;25710;-64
2021/11/18 05:30:11;;;;;;;45.90;23.92;;;;;;;5.55;95.52;100678.59;1680307;84;25612;-64
2021/11/18 05:32:37;;;;;;;45.30;23.20;;;;;;;5.55;95.61;100671.88;1680309;84;27309;-64
2021/11/18 05:35:06;;;;;;;44.70;23.38;;;;;;;5.55;95.66;100679.41;1679830;84;27202;-64
2021/11/18 05:37:34;;;;;;;48.58;24.15;;;;;;;5.56;95.63;100685.58;1680227;85;25395;-64
2021/11/18 05:40:01;;;;;;;50.25;23.70;;;;;;;5.54;95.59;100677.79;1680223;84;26098;-65
2021/11/18 05:42:27;;;;;;;45.95;23.20;;;;;;;5.55;95.55;100685.30;1679837;84;25599;-64
2021/11/18 05:44:54;;;;;;;41.53;23.70;;;;;;;5.54;95.56;100694.44;1680135;84;27339;-64
2021/11/18 05:47:22;;;;;;;42.50;23.95;;;;;;;5.53;95.53;100691.47;1669925;85;25648;-64
2021/11/18 05:49:48;;;;;;;44.45;24.43;;;;;;;5.54;95.62;100690.41;1679980;84;25543;-63
2021/11/18 05:52:15;;;;;;;46.55;24.87;;;;;;;5.54;95.59;100687.18;1680082;84;25727;-63
2021/11/18 05:54:42;;;;;;;49.08;25.20;;;;;;;5.55;95.64;100692.00;1680181;85;25561;-63
2021/11/18 05:57:09;;;;;;;48.42;24.35;;;;;;;5.55;95.61;100699.53;1679993;85;29527;-63
2021/11/18 05:59:36;;;;;;;50.48;26.90;;;;;;;5.55;95.63;100692.83;1680030;85;25653;-64
2021/11/18 06:02:02;;;;;;;49.50;25.97;;;;;;;5.57;95.63;100689.34;1680150;85;25658;-64
2021/11/18 06:04:29;;;;;;;50.23;27.50;;;;;;;5.57;95.60;100685.31;1679763;84;25760;-64
2021/11/18 06:06:57;;;;;;;44.33;25.35;;;;;;;5.60;95.74;100692.02;1680191;85;25636;-64
2021/11/18 06:09:24;;;;;;;48.70;25.40;;;;;;;5.58;95.77;100689.62;1680083;84;29444;-64
2021/11/18 06:11:50;;;;;;;46.95;25.82;;;;;;;5.60;95.90;100690.67;1679867;85;26307;-64
2021/11/18 06:14:17;;;;;;;51.70;25.72;;;;;;;5.60;95.89;100692.02;1680181;84;25587;-64
2021/11/18 06:16:43;;;;;;;51.77;26.12;;;;;;;5.59;95.99;100693.90;1680111;85;25699;-64
2021/11/18 06:19:10;;;;;;;52.80;26.68;;;;;;;5.59;95.96;100702.50;1679874;84;25657;-64
2021/11/18 06:21:42;;;;;;;49.00;26.45;;;;;;;5.58;96.10;100704.89;1680102;85;27424;-64
2021/11/18 06:24:10;;;;;;;47.65;25.48;;;;;;;5.57;96.21;100697.39;1680088;84;26028;-65
2021/11/18 06:26:38;;;;;;;44.18;23.83;;;;;;;5.56;96.18;100701.67;1679872;84;25691;-65
2021/11/18 06:29:04;;;;;;;50.60;25.65;;;;;;;5.54;96.28;100708.65;1680219;84;25772;-65
2021/11/18 06:31:34;;;;;;;50.63;25.37;;;;;;;5.55;96.53;100705.42;1680145;84;25669;-65
2021/11/18 06:34:00;;;;;;;45.17;25.52;;;;;;;5.52;96.66;100708.11;1680109;85;27430;-64
2021/11/18 06:36:28;;;;;;;50.25;25.20;;;;;;;5.51;96.63;100713.73;1679997;85;25591;-64
2021/11/18 06:38:55;;;;;;;44.65;24.60;;;;;;;5.52;96.83;100710.80;1680242;84;25394;-64
2021/11/18 06:41:29;;;;;;;43.45;24.95;;;;;;;5.50;97.10;100707.58;1679808;83;25658;-64
2021/11/18 06:43:52;;;;;;;55.78;28.55;;;;;;;5.50;97.21;100712.11;1673134;84;25565;-64
2021/11/18 06:46:18;;;;;;;47.90;25.62;;;;;;;5.49;97.22;100719.91;1673286;85;26921;-65
2021/11/18 06:48:45;;;;;;;49.73;27.77;;;;;;;5.50;97.15;100720.16;1684442;84;25783;-65
2021/11/18 06:51:18;;;;;;;52.33;27.67;;;;;;;5.53;97.25;100723.67;1673360;84;25414;-65
2021/11/18 06:53:45;;;;;;;46.28;27.80;;;;;;;5.52;97.24;100718.05;1702798;83;25684;-64
2021/11/18 06:56:15;;;;;;;50.28;27.98;;;;;;;5.54;97.39;100727.43;1673036;85;25612;-65
2021/11/18 06:58:42;;;;;;;59.45;29.35;;;;;;;5.55;97.31;100727.71;1702802;84;27393;-64
2021/11/18 07:01:10;;;;;;;49.73;27.55;;;;;;;5.57;97.36;100730.14;1702661;84;25664;-66
2021/11/18 07:03:41;;;;;;;51.50;27.60;;;;;;;5.57;97.39;100728.80;1672972;84;25414;-65
2021/11/18 07:06:12;;;;;;;54.95;28.52;;;;;;;5.59;97.42;100729.33;1673223;85;25678;-65
2021/11/18 07:08:42;;;;;;;48.78;27.60;;;;;;;5.61;97.58;100734.69;1673220;84;25426;-64
2021/11/18 07:11:11;;;;;;;52.98;27.00;;;;;;;5.61;97.37;100733.34;1702569;84;27985;-65
2021/11/18 07:13:39;;;;;;;48.87;27.17;;;;;;;5.61;97.43;100730.66;1702721;84;25753;-65
2021/11/18 07:16:12;;;;;;;50.37;27.00;;;;;;;5.62;97.44;100724.78;1673558;84;25638;-65
2021/11/18 07:18:40;;;;;;;48.08;26.85;;;;;;;5.63;97.41;100729.60;1702514;84;25729;-65
2021/11/18 07:21:08;;;;;;;45.12;25.57;;;;;;;5.61;97.39;100725.30;1702846;84;25765;-63
2021/11/18 07:23:36;;;;;;;53.05;29.00;;;;;;;5.61;97.31;100726.64;1673202;85;28070;-64
2021/11/18 07:26:05;;;;;;;45.58;27.45;;;;;;;5.60;97.30;100728.24;1702428;84;25730;-64
2021/11/18 07:28:35;;;;;;;50.17;26.57;;;;;;;5.62;97.39;100734.17;1673413;84;25766;-64
2021/11/18 07:31:03;;;;;;;47.03;26.15;;;;;;;5.61;97.46;100731.20;1673344;85;26614;-64
2021/11/18 07:33:32;;;;;;;44.75;26.75;;;;;;;5.62;97.74;100735.52;1702568;83;25582;-64
2021/11/18 07:35:59;;;;;;;43.90;26.23;;;;;;;5.61;97.61;100736.03;1673599;85;27947;-64
2021/11/18 07:38:30;;;;;;;50.08;27.58;;;;;;;5.64;97.66;100735.25;1702708;84;27304;-64
2021/11/18 07:40:58;;;;;;;51.20;27.85;;;;;;;5.67;97.65;100740.07;1673115;84;25694;-64
2021/11/18 07:43:32;;;;;;;48.42;27.37;;;;;;;5.69;97.86;100737.41;1696915;83;25862;-64
2021/11/18 07:46:02;;;;;;;50.30;27.27;;;;;;;5.71;97.73;100727.75;1694808;83;25690;-64
2021/11/18 07:48:30;;;;;;;50.67;27.25;;;;;;;5.73;97.71;100733.11;1694491;84;27336;-64
2021/11/18 07:50:58;;;;;;;55.23;28.45;;;;;;;5.76;97.72;100734.47;1694714;84;25686;-64
2021/11/18 07:53:28;;;;;;;48.60;26.05;;;;;;;5.78;97.69;100733.66;1694710;83;25510;-64
2021/11/18 07:55:54;;;;;;;50.90;26.85;;;;;;;5.78;97.54;100741.72;1694554;84;32336;-64
2021/11/18 07:58:21;;;;;;;46.75;26.62;;;;;;;5.80;97.45;100739.56;1689844;83;25419;-64
2021/11/18 08:00:50;;;;;;;48.08;27.37;;;;;;;5.81;97.40;100753.27;1686583;84;27325;-64
2021/11/18 08:03:18;;;;;;;51.37;28.20;;;;;;;5.83;97.33;100753.01;1689930;83;25741;-64
2021/11/18 08:05:46;;;;;;;46.65;27.13;;;;;;;5.84;97.40;100748.72;1690114;84;25662;-65
2021/11/18 08:08:13;;;;;;;49.55;27.93;;;;;;;5.86;97.38;100747.11;1696454;84;25776;-65
2021/11/18 08:10:40;;;;;;;49.03;26.95;;;;;;;5.86;97.29;100741.74;1696289;84;25717;-65
2021/11/18 08:13:07;;;;;;;52.05;28.35;;;;;;;5.88;97.36;100748.98;1696526;84;27409;-65
2021/11/18 08:15:34;;;;;;;50.50;27.55;;;;;;;5.87;97.28;100749.50;1696358;84;25413;-65
2021/11/18 08:18:01;;;;;;;49.35;26.95;;;;;;;5.90;97.37;100761.06;1692581;83;25696;-65
2021/11/18 08:20:27;;;;;;;47.48;27.07;;;;;;;5.88;97.04;100747.10;1689654;84;25752;-65
2021/11/18 08:22:55;;;;;;;43.73;26.33;;;;;;;5.92;97.33;100756.22;1689355;83;25766;-63
2021/11/18 08:25:26;;;;;;;43.98;26.17;;;;;;;5.93;97.23;100765.91;1688118;84;27386;-63
2021/11/18 08:27:53;;;;;;;45.43;25.70;;;;;;;5.94;97.17;100764.84;1691420;83;25756;-64
2021/11/18 08:30:24;;;;;;;51.25;26.60;;;;;;;5.97;97.21;100766.20;1710829;83;25708;-64
2021/11/18 08:32:55;;;;;;;48.30;27.55;;;;;;;5.98;97.17;100774.00;1707244;83;25708;-64
2021/11/18 08:35:31;;;;;;;43.73;25.50;;;;;;;6.00;97.11;100770.25;1708758;83;25758;-64
2021/11/18 08:38:05;;;;;;;49.55;25.82;;;;;;;6.02;97.16;100768.10;1709457;83;28224;-64
2021/11/18 08:40:35;;;;;;;42.70;26.30;;;;;;;6.04;97.12;100776.14;1707299;83;25927;-64
2021/11/18 08:43:04;;;;;;;44.65;25.12;;;;;;;6.06;96.98;100767.83;1706306;83;25655;-64
2021/11/18 08:45:31;;;;;;;40.85;24.43;;;;;;;6.06;96.74;100770.52;1685446;83;26511;-64
2021/11/18 08:47:59;;;;;;;45.40;25.12;;;;;;;6.05;96.49;100781.00;1675570;85;25709;-64
2021/11/18 08:50:26;;;;;;;40.15;24.10;;;;;;;6.04;96.43;100788.23;1675693;84;27320;-64
2021/11/18 08:52:54;;;;;;;42.30;24.52;;;;;;;6.05;96.28;100792.54;1675531;85;25770;-65
2021/11/18 08:55:28;;;;;;;43.85;24.67;;;;;;;6.05;96.30;100781.80;1675514;84;25704;-64
2021/11/18 08:57:55;;;;;;;40.03;24.57;;;;;;;6.08;96.41;100793.88;1675588;84;25631;-64
2021/11/18 09:00:35;;;;;;;41.15;25.72;;;;;;;6.11;96.47;100782.09;1675321;85;25664;-65
2021/11/18 09:03:02;;;;;;;38.88;24.35;;;;;;;6.16;96.56;100786.13;1675631;84;27307;-64
2021/11/18 09:05:30;;;;;;;46.33;24.72;;;;;;;6.18;96.39;100792.57;1675505;85;25854;-64
2021/11/18 09:07:59;;;;;;;44.55;24.30;;;;;;;6.22;96.35;100786.13;1675341;85;25892;-65
2021/11/18 09:10:27;;;;;;;39.05;23.35;;;;;;;6.24;95.94;100779.40;1675500;84;25771;-65
2021/11/18 09:12:55;;;;;;;38.10;23.27;;;;;;;6.27;95.75;100784.78;1675557;85;25440;-64
2021/11/18 09:15:26;;;;;;;38.10;21.90;;;;;;;6.30;95.80;100781.02;1675254;85;27356;-64
2021/11/18 09:17:56;;;;;;;38.33;23.30;;;;;;;6.34;95.41;100773.23;1675515;85;25399;-64
2021/11/18 09:20:25;;;;;;;40.45;23.25;;;;;;;6.40;95.58;100775.38;1675540;85;25386;-64
2021/11/18 09:22:57;;;;;;;39.80;22.77;;;;;;;6.46;95.79;100778.34;1675442;85;26227;-64
2021/11/18 09:25:20;;;;;;;34.13;20.23;;;;;;;6.50;94.95;100772.67;1675279;85;26270;-65
2021/11/18 09:27:51;;;;;;;35.68;20.88;;;;;;;6.58;94.83;100771.34;1675467;85;27370;-65
2021/11/18 09:30:28;;;;;;;36.50;21.17;;;;;;;6.64;94.85;100782.34;1675337;84;25714;-63
2021/11/18 09:32:58;;;;;;;30.02;19.50;;;;;;;6.68;94.12;100784.23;1691516;84;25687;-65
2021/11/18 09:35:29;;;;;;;33.63;20.35;;;;;;;6.73;94.21;100785.56;1691743;84;26256;-63
2021/11/18 09:37:57;;;;;;;31.85;19.17;;;;;;;6.80;94.09;100787.98;1690300;84;25672;-63
2021/11/18 09:40:35;;;;;;;34.53;19.02;;;;;;;6.80;93.61;100785.28;1691594;84;27377;-63
2021/11/18 09:43:55;;;;;;;35.48;18.07;;;;;;;6.80;93.09;100775.08;1691405;84;25596;-65
2021/11/18 09:46:52;;;;;;;30.10;18.15;;;;;;;6.81;93.16;100772.64;1691380;84;25824;-63
2021/11/18 09:50:06;;;;;;;34.75;19.00;;;;;;;6.88;93.33;100773.19;1691796;84;25785;-63
2021/11/18 09:52:58;;;;;;;30.90;18.40;;;;;;;6.92;93.01;100763.48;1691389;84;25630;-65
2021/11/18 09:55:38;;;;;;;30.30;17.45;;;;;;;6.96;92.37;100768.57;1672274;85;27349;-63
2021/11/18 09:58:27;;;;;;;32.67;19.17;;;;;;;6.91;92.40;100768.06;1672555;85;25724;-64
2021/11/18 10:01:26;;;;;;;28.75;17.85;;;;;;;6.90;92.34;100766.99;1672271;85;25669;-63
2021/11/18 10:04:42;;;;;;;29.10;16.77;;;;;;;6.85;91.97;100761.08;1672612;85;25789;-63
2021/11/18 10:07:19;;;;;;;25.95;16.37;;;;;;;6.80;91.48;100761.09;1672325;85;25496;-64
2021/11/18 10:10:18;;;;;;;28.57;17.17;;;;;;;6.76;91.17;100756.52;1664784;85;27940;-64
2021/11/18 10:13:15;;;;;;;31.73;18.05;;;;;;;6.75;91.51;100775.89;1627783;88;25803;-64
2021/11/18 10:15:52;;;;;;;30.88;17.35;;;;;;;6.76;91.47;100778.03;1627060;88;25609;-64
2021/11/18 10:18:24;;;;;;;29.80;17.10;;;;;;;6.79;91.73;100776.15;1627884;88;27753;-64
2021/11/18 10:21:17;;;;;;;31.93;17.32;;;;;;;6.85;91.44;100774.52;1628195;87;25734;-63
2021/11/18 10:23:47;;;;;;;29.65;16.07;;;;;;;6.93;91.09;100779.91;1627803;88;27443;-64
2021/11/18 10:26:18;;;;;;;27.35;16.25;;;;;;;6.96;90.96;100775.30;1627889;88;25661;-64
2021/11/18 10:29:02;;;;;;;26.55;16.42;;;;;;;6.97;91.05;100767.51;1627949;88;25890;-64
2021/11/18 10:31:49;;;;;;;29.87;16.67;;;;;;;6.98;90.83;100771.82;1627796;88;26292;-64
2021/11/18 10:34:28;;;;;;;29.12;16.32;;;;;;;7.00;90.24;100767.48;1668226;86;25787;-64
2021/11/18 10:37:11;;;;;;;27.35;15.15;;;;;;;7.02;89.99;100766.70;1668443;86;27329;-64
2021/11/18 10:40:01;;;;;;;29.57;15.90;;;;;;;7.00;89.99;100772.34;1668574;86;25716;-64
2021/11/18 10:42:39;;;;;;;27.22;16.73;;;;;;;7.01;90.09;100773.14;1668789;86;25564;-64
2021/11/18 10:45:14;;;;;;;30.97;16.05;;;;;;;7.04;90.23;100768.02;1668511;86;25780;-64
2021/11/18 10:48:06;;;;;;;30.00;14.73;;;;;;;7.07;90.38;100767.48;1669844;85;25773;-65
2021/11/18 10:50:53;;;;;;;29.05;14.95;;;;;;;7.14;90.27;100769.09;1675512;85;27407;-65
2021/11/18 10:53:25;;;;;;;22.45;14.23;;;;;;;7.19;90.08;100759.10;1674986;84;25620;-65
2021/11/18 10:56:09;;;;;;;24.30;15.23;;;;;;;7.28;90.32;100756.64;1675501;84;25422;-64
2021/11/18 10:58:44;;;;;;;26.17;15.23;;;;;;;7.40;90.77;100747.70;1675369;85;25650;-64
2021/11/18 11:01:28;;;;;;;29.25;15.10;;;;;;;7.57;90.23;100743.31;1675525;85;25640;-64
2021/11/18 11:03:59;;;;;;;24.85;14.43;;;;;;;7.66;89.36;100744.88;1675544;84;27323;-65
2021/11/18 11:06:33;;;;;;;29.00;14.55;;;;;;;7.67;87.79;100747.30;1675202;85;25923;-64
2021/11/18 11:09:13;;;;;;;34.20;16.07;;;;;;;7.65;87.53;100748.13;1675678;84;25569;-64
2021/11/18 11:12:23;;;;;;;25.40;14.35;;;;;;;7.64;88.14;100745.70;1675399;85;25841;-65
2021/11/18 11:15:31;;;;;;;28.95;14.03;;;;;;;7.60;87.92;100748.16;1675393;85;25613;-65
2021/11/18 11:18:35;;;;;;;22.55;13.93;;;;;;;7.51;87.26;100756.56;1678571;84;27508;-65
2021/11/18 11:21:53;;;;;;;26.55;13.20;;;;;;;7.45;86.00;100752.27;1677804;85;25703;-63
2021/11/18 11:25:08;;;;;;;20.25;12.35;;;;;;;7.37;86.79;100768.47;1692738;84;25636;-65
2021/11/18 11:28:02;;;;;;;24.65;13.38;;;;;;;7.33;86.35;100766.59;1707199;84;25757;-65
2021/11/18 11:30:52;;;;;;;23.65;12.45;;;;;;;7.69;90.12;100758.34;1684364;83;25804;-64
2021/11/18 11:33:35;;;;;;;20.55;11.75;;;;;;;7.99;87.65;100765.44;1692353;84;27336;-63
2021/11/18 11:36:19;;;;;;;21.37;10.30;;;;;;;8.03;84.86;100768.62;1697249;84;25660;-65
2021/11/18 11:39:17;;;;;;;18.70;9.73;;;;;;;7.96;84.28;100757.36;1704200;84;25648;-64